createdAt,value
2018-06-23T00:02:52.653Z,96469.00
2018-06-23T00:08:21.868Z,96468.00
2018-06-23T00:13:51.091Z,96460.00
2018-06-23T00:19:20.307Z,96460.00
2018-06-23T00:24:49.539Z,96463.00
2018-06-23T00:30:18.809Z,96458.00
2018-06-23T00:35:48.024Z,96460.00
2018-06-23T00:41:17.518Z,96459.00
2018-06-23T00:46:46.756Z,96452.00
2018-06-23T00:52:16.227Z,96455.00
2018-06-23T00:57:45.477Z,96457.00
2018-06-23T01:03:14.765Z,96454.00
2018-06-23T01:08:44.240Z,96449.00
2018-06-23T01:14:13.638Z,96443.00
2018-06-23T01:19:43.026Z,96447.00
2018-06-23T01:25:12.325Z,96449.00
2018-06-23T01:30:41.529Z,96447.00
2018-06-23T01:36:10.765Z,96450.00
2018-06-23T01:41:40.153Z,96442.00
2018-06-23T01:47:09.365Z,96445.00
2018-06-23T01:52:38.518Z,96439.00
2018-06-23T01:58:07.740Z,96426.00
2018-06-23T02:03:36.981Z,96427.00
2018-06-23T02:09:09.635Z,96428.00
2018-06-23T02:15:15.371Z,96426.00
2018-06-23T02:20:49.942Z,96428.00
2018-06-23T02:26:24.332Z,96419.00
2018-06-23T02:31:58.866Z,96421.00
2018-06-23T02:37:28.096Z,96415.00
2018-06-23T02:42:57.434Z,96410.00
2018-06-23T02:48:26.650Z,96409.00
2018-06-23T02:53:55.902Z,96407.00
2018-06-23T02:59:25.088Z,96405.00
2018-06-23T03:04:54.333Z,96402.00
2018-06-23T03:10:23.628Z,96404.00
2018-06-23T03:15:52.998Z,96413.00
2018-06-23T03:21:22.397Z,96409.00
2018-06-23T03:26:51.599Z,96418.00
2018-06-23T03:32:20.854Z,96414.00
2018-06-23T03:37:50.195Z,96419.00
2018-06-23T03:43:19.419Z,96424.00
2018-06-23T03:48:48.689Z,96416.00
2018-06-23T03:54:17.996Z,96426.00
2018-06-23T03:59:47.281Z,96428.00
2018-06-23T04:05:16.478Z,96432.00
2018-06-23T04:10:45.741Z,96434.00
2018-06-23T04:16:15.014Z,96421.00
2018-06-23T04:21:44.315Z,96428.00
2018-06-23T04:27:13.519Z,96424.00
2018-06-23T04:32:42.890Z,96424.00
2018-06-23T04:38:12.159Z,96428.00
2018-06-23T04:43:41.400Z,96425.00
2018-06-23T04:49:10.603Z,96432.00
2018-06-23T04:54:39.837Z,96431.00
2018-06-23T05:00:09.190Z,96432.00
2018-06-23T05:05:38.453Z,96445.00
2018-06-23T05:11:08.270Z,96435.00
2018-06-23T05:16:37.454Z,96435.00
2018-06-23T05:22:07.002Z,96443.00
2018-06-23T05:27:36.247Z,96442.00
2018-06-23T05:33:05.776Z,96449.00
2018-06-23T05:38:34.986Z,96443.00
2018-06-23T05:44:04.245Z,96440.00
2018-06-23T05:49:33.477Z,96443.00
2018-06-23T05:55:02.690Z,96437.00
2018-06-23T06:00:31.939Z,96439.00
2018-06-23T06:06:01.448Z,96446.00
2018-06-23T06:11:30.657Z,96443.00
2018-06-23T06:17:31.928Z,96447.00
2018-06-23T06:23:01.116Z,96452.00
2018-06-23T06:28:30.330Z,96444.00
2018-06-23T06:33:59.567Z,96439.00
2018-06-23T06:39:28.760Z,96441.00
2018-06-23T06:44:57.987Z,96441.00
2018-06-23T06:50:27.307Z,96439.00
2018-06-23T06:55:56.543Z,96440.00
2018-06-23T07:01:25.759Z,96426.00
2018-06-23T07:06:54.990Z,96435.00
2018-06-23T07:12:24.237Z,96437.00
2018-06-23T07:17:53.460Z,96437.00
2018-06-23T07:23:22.631Z,96435.00
2018-06-23T07:28:51.901Z,96424.00
2018-06-23T07:34:21.335Z,96433.00
2018-06-23T07:39:50.443Z,96425.00
2018-06-23T07:45:19.756Z,96434.00
2018-06-23T07:50:49.079Z,96429.00
2018-06-23T07:56:18.313Z,96420.00
2018-06-23T08:01:49.918Z,96417.00
2018-06-23T08:07:19.349Z,96411.00
2018-06-23T08:12:48.596Z,96416.00
2018-06-23T08:18:17.832Z,96409.00
2018-06-23T08:23:47.075Z,96397.00
2018-06-23T08:29:16.341Z,96409.00
2018-06-23T08:34:45.561Z,96398.00
2018-06-23T08:40:14.824Z,96410.00
2018-06-23T08:45:44.101Z,96391.00
2018-06-23T08:51:13.306Z,96401.00
2018-06-23T08:56:42.257Z,96400.00
2018-06-23T09:02:11.485Z,96394.00
2018-06-23T09:07:40.695Z,96394.00
2018-06-23T09:13:10.010Z,96389.00
2018-06-23T09:18:39.476Z,96383.00
2018-06-23T09:24:08.751Z,96370.00
2018-06-23T09:29:37.965Z,96386.00
2018-06-23T09:35:07.267Z,96366.00
2018-06-23T09:40:36.495Z,96377.00
2018-06-23T09:46:05.496Z,96369.00
2018-06-23T09:51:34.681Z,96376.00
2018-06-23T09:57:03.728Z,96377.00
2018-06-23T10:02:32.932Z,96385.00
2018-06-23T10:08:02.135Z,96371.00
2018-06-23T10:13:31.350Z,96375.00
2018-06-23T10:19:00.561Z,96379.00
2018-06-23T10:24:29.850Z,96365.00
2018-06-23T10:30:00.114Z,96363.00
2018-06-23T10:35:29.669Z,96361.00
2018-06-23T10:40:58.927Z,96361.00
2018-06-23T10:46:28.218Z,96365.00
2018-06-23T10:51:59.372Z,96352.00
2018-06-23T10:57:28.611Z,96353.00
2018-06-23T11:02:59.019Z,96349.00
2018-06-23T11:08:28.272Z,96352.00
2018-06-23T11:13:57.552Z,96344.00
2018-06-23T11:19:26.775Z,96341.00
2018-06-23T11:24:56.047Z,96352.00
2018-06-23T11:30:25.329Z,96343.00
2018-06-23T11:35:54.575Z,96339.00
2018-06-23T11:41:23.972Z,96342.00
2018-06-23T11:46:53.532Z,96338.00
2018-06-23T11:52:22.785Z,96320.00
2018-06-23T11:57:51.893Z,96314.00
2018-06-23T12:03:21.121Z,96325.00
2018-06-23T12:08:50.372Z,96300.00
2018-06-23T12:14:19.736Z,96318.00
2018-06-23T12:19:49.002Z,96299.00
2018-06-23T12:25:18.205Z,96303.00
2018-06-23T12:30:47.465Z,96309.00
2018-06-23T12:36:16.711Z,96286.00
2018-06-23T12:41:46.062Z,96278.00
2018-06-23T12:47:15.336Z,96282.00
2018-06-23T12:52:44.350Z,96278.00
2018-06-23T12:58:13.662Z,96270.00
2018-06-23T13:03:43.033Z,96270.00
2018-06-23T13:09:13.062Z,96254.00
2018-06-23T13:14:42.307Z,96263.00
2018-06-23T13:20:11.624Z,96259.00
2018-06-23T13:25:40.944Z,96253.00
2018-06-23T13:31:10.175Z,96250.00
2018-06-23T13:36:39.413Z,96263.00
2018-06-23T13:42:08.627Z,96246.00
2018-06-23T13:47:37.855Z,96232.00
2018-06-23T13:53:07.096Z,96234.00
2018-06-23T13:58:36.367Z,96239.00
2018-06-23T14:04:05.651Z,96234.00
2018-06-23T14:09:34.842Z,96237.00
2018-06-23T14:15:04.130Z,96219.00
2018-06-23T14:20:33.385Z,96240.00
2018-06-23T14:26:02.571Z,96237.00
2018-06-23T14:31:31.889Z,96244.00
2018-06-23T14:37:01.058Z,96245.00
2018-06-23T14:42:30.246Z,96241.00
2018-06-23T14:47:59.493Z,96227.00
2018-06-23T14:53:28.722Z,96237.00
2018-06-23T14:58:57.986Z,96221.00
2018-06-23T15:04:27.216Z,96230.00
2018-06-23T15:10:13.559Z,96196.00
2018-06-23T15:15:42.868Z,96235.00
2018-06-23T15:21:12.252Z,96233.00
2018-06-23T15:26:41.520Z,96232.00
2018-06-23T15:32:10.843Z,96242.00
2018-06-23T15:37:40.189Z,96233.00
2018-06-23T15:43:09.479Z,96233.00
2018-06-23T15:48:39.001Z,96234.00
2018-06-23T15:54:08.328Z,96223.00
2018-06-23T15:59:37.562Z,96223.00
2018-06-23T16:05:06.869Z,96232.00
2018-06-23T16:10:36.086Z,96236.00
2018-06-23T16:16:05.296Z,96236.00
2018-06-23T16:21:34.499Z,96234.00
2018-06-23T16:27:04.804Z,96230.00
2018-06-23T16:32:34.079Z,96231.00
2018-06-23T16:38:03.338Z,96219.00
2018-06-23T16:43:32.607Z,96222.00
2018-06-23T16:49:01.848Z,96220.00
2018-06-23T16:54:31.012Z,96217.00
2018-06-23T17:00:00.223Z,96219.00
2018-06-23T17:05:29.616Z,96214.00
2018-06-23T17:10:58.809Z,96211.00
2018-06-23T17:16:28.053Z,96212.00
2018-06-23T17:21:57.285Z,96223.00
2018-06-23T17:27:26.514Z,96221.00
2018-06-23T17:32:55.678Z,96231.00
2018-06-23T17:38:24.970Z,96229.00
2018-06-23T17:43:54.106Z,96222.00
2018-06-23T17:49:23.340Z,96228.00
2018-06-23T17:54:52.563Z,96234.00
2018-06-23T18:00:21.827Z,96236.00
2018-06-23T18:05:51.077Z,96248.00
2018-06-23T18:11:20.399Z,96245.00
2018-06-23T18:16:49.679Z,96238.00
2018-06-23T18:22:18.967Z,96245.00
2018-06-23T18:27:48.194Z,96243.00
2018-06-23T18:33:17.434Z,96248.00
2018-06-23T18:38:46.599Z,96239.00
2018-06-23T18:44:15.861Z,96236.00
2018-06-23T18:49:45.064Z,96239.00
2018-06-23T18:55:14.382Z,96238.00
2018-06-23T19:00:43.677Z,96236.00
2018-06-23T19:06:12.868Z,96228.00
2018-06-23T19:11:42.124Z,96238.00
2018-06-23T19:17:11.385Z,96239.00
2018-06-23T19:22:40.692Z,96252.00
2018-06-23T19:28:10.028Z,96258.00
2018-06-23T19:33:39.301Z,96264.00
2018-06-23T19:39:10.597Z,96261.00
2018-06-23T19:44:39.818Z,96255.00
2018-06-23T19:50:10.273Z,96269.00
2018-06-23T19:55:39.557Z,96276.00
2018-06-23T20:01:09.156Z,96283.00
2018-06-23T20:06:38.443Z,96293.00
2018-06-23T20:12:07.696Z,96279.00
2018-06-23T20:17:36.903Z,96282.00
2018-06-23T20:23:06.175Z,96278.00
2018-06-23T20:28:35.379Z,96290.00
2018-06-23T20:34:04.603Z,96282.00
2018-06-23T20:39:33.807Z,96286.00
2018-06-23T20:45:03.001Z,96282.00
2018-06-23T20:50:32.491Z,96292.00
2018-06-23T20:56:01.919Z,96289.00
2018-06-23T21:01:31.204Z,96295.00
2018-06-23T21:07:00.387Z,96298.00
2018-06-23T21:12:29.621Z,96291.00
2018-06-23T21:17:58.871Z,96293.00
2018-06-23T21:23:28.095Z,96298.00
2018-06-23T21:28:57.413Z,96305.00
2018-06-23T21:34:26.613Z,96290.00
2018-06-23T21:39:55.918Z,96290.00
2018-06-23T21:45:25.151Z,96292.00
2018-06-23T21:50:54.334Z,96286.00
2018-06-23T21:56:23.699Z,96288.00
2018-06-23T22:01:52.966Z,96289.00
2018-06-23T22:07:31.889Z,96294.00
2018-06-23T22:13:01.183Z,96298.00
2018-06-23T22:18:30.131Z,96292.00
2018-06-23T22:23:59.391Z,96288.00
2018-06-23T22:29:28.706Z,96298.00
2018-06-23T22:34:58.028Z,96292.00
2018-06-23T22:40:27.222Z,96295.00
2018-06-23T22:45:56.552Z,96289.00
2018-06-23T22:51:25.803Z,96294.00
2018-06-23T22:56:55.051Z,96278.00
2018-06-23T23:02:24.336Z,96285.00
2018-06-23T23:07:53.498Z,96284.00
2018-06-23T23:13:22.748Z,96290.00
2018-06-23T23:18:51.944Z,96284.00
2018-06-23T23:24:21.164Z,96286.00
2018-06-23T23:29:50.421Z,96273.00
2018-06-23T23:35:19.728Z,96278.00
2018-06-23T23:40:48.929Z,96278.00
2018-06-23T23:46:18.297Z,96282.00
2018-06-23T23:51:47.637Z,96274.00
2018-06-23T23:57:16.890Z,96272.00
